sensor_id;sensor_type;location;lat;lon;timestamp;temperature;humidity
39519;DHT22;25200;53.394;10.414;2023-03-14T00:01:51;11.20;91.80
39519;DHT22;25200;53.394;10.414;2023-03-14T00:04:17;11.20;91.80
39519;DHT22;25200;53.394;10.414;2023-03-14T00:06:42;11.20;91.80
39519;DHT22;25200;53.394;10.414;2023-03-14T00:09:08;11.20;91.80
39519;DHT22;25200;53.394;10.414;2023-03-14T00:11:33;11.20;91.80
39519;DHT22;25200;53.394;10.414;2023-03-14T00:13:59;11.20;91.80
39519;DHT22;25200;53.394;10.414;2023-03-14T00:16:26;11.20;91.80
39519;DHT22;25200;53.394;10.414;2023-03-14T00:18:52;11.20;91.80
39519;DHT22;25200;53.394;10.414;2023-03-14T00:21:18;11.10;91.70
39519;DHT22;25200;53.394;10.414;2023-03-14T00:23:44;11.10;91.80
39519;DHT22;25200;53.394;10.414;2023-03-14T00:26:12;11.10;91.80
39519;DHT22;25200;53.394;10.414;2023-03-14T00:28:39;11.10;91.70
39519;DHT22;25200;53.394;10.414;2023-03-14T00:31:06;11.10;91.80
39519;DHT22;25200;53.394;10.414;2023-03-14T00:33:32;11.10;91.70
39519;DHT22;25200;53.394;10.414;2023-03-14T00:36:00;11.00;91.70
39519;DHT22;25200;53.394;10.414;2023-03-14T00:38:27;11.00;91.70
39519;DHT22;25200;53.394;10.414;2023-03-14T00:40:53;11.00;91.80
39519;DHT22;25200;53.394;10.414;2023-03-14T00:43:20;11.00;91.80
39519;DHT22;25200;53.394;10.414;2023-03-14T00:45:50;11.00;91.80
39519;DHT22;25200;53.394;10.414;2023-03-14T00:48:17;11.00;91.80
39519;DHT22;25200;53.394;10.414;2023-03-14T00:50:43;11.00;91.80
39519;DHT22;25200;53.394;10.414;2023-03-14T00:53:08;11.00;91.80
39519;DHT22;25200;53.394;10.414;2023-03-14T00:55:41;11.00;91.90
39519;DHT22;25200;53.394;10.414;2023-03-14T00:58:08;11.00;91.80
39519;DHT22;25200;53.394;10.414;2023-03-14T01:00:34;11.00;91.80
39519;DHT22;25200;53.394;10.414;2023-03-14T01:03:00;11.00;91.80
39519;DHT22;25200;53.394;10.414;2023-03-14T01:05:25;11.00;91.80
39519;DHT22;25200;53.394;10.414;2023-03-14T01:07:51;11.00;91.80
39519;DHT22;25200;53.394;10.414;2023-03-14T01:10:17;11.00;91.90
39519;DHT22;25200;53.394;10.414;2023-03-14T01:12:42;11.00;91.90
39519;DHT22;25200;53.394;10.414;2023-03-14T01:15:08;11.00;91.90
39519;DHT22;25200;53.394;10.414;2023-03-14T01:17:34;11.10;91.90
39519;DHT22;25200;53.394;10.414;2023-03-14T01:20:01;11.10;91.90
39519;DHT22;25200;53.394;10.414;2023-03-14T01:22:26;11.10;91.90
39519;DHT22;25200;53.394;10.414;2023-03-14T01:24:52;11.10;91.90
39519;DHT22;25200;53.394;10.414;2023-03-14T01:27:18;11.10;92.00
39519;DHT22;25200;53.394;10.414;2023-03-14T01:29:43;11.10;92.00
39519;DHT22;25200;53.394;10.414;2023-03-14T01:32:09;11.10;92.00
39519;DHT22;25200;53.394;10.414;2023-03-14T01:34:35;11.20;92.00
39519;DHT22;25200;53.394;10.414;2023-03-14T01:37:00;11.20;92.20
39519;DHT22;25200;53.394;10.414;2023-03-14T01:39:26;11.20;92.00
39519;DHT22;25200;53.394;10.414;2023-03-14T01:41:51;11.20;92.00
39519;DHT22;25200;53.394;10.414;2023-03-14T01:44:17;11.20;92.00
39519;DHT22;25200;53.394;10.414;2023-03-14T01:46:45;11.20;92.00
39519;DHT22;25200;53.394;10.414;2023-03-14T01:49:26;11.20;91.90
39519;DHT22;25200;53.394;10.414;2023-03-14T01:54:32;11.20;91.90
39519;DHT22;25200;53.394;10.414;2023-03-14T01:57:15;11.20;91.90
39519;DHT22;25200;53.394;10.414;2023-03-14T01:59:55;11.20;91.90
39519;DHT22;25200;53.394;10.414;2023-03-14T02:02:24;11.20;91.90
39519;DHT22;25200;53.394;10.414;2023-03-14T02:04:52;11.20;92.00
39519;DHT22;25200;53.394;10.414;2023-03-14T02:07:35;11.20;92.00
39519;DHT22;25200;53.394;10.414;2023-03-14T02:10:03;11.20;92.10
39519;DHT22;25200;53.394;10.414;2023-03-14T02:12:29;11.20;92.10
39519;DHT22;25200;53.394;10.414;2023-03-14T02:14:55;11.20;92.10
39519;DHT22;25200;53.394;10.414;2023-03-14T02:17:22;11.10;92.10
39519;DHT22;25200;53.394;10.414;2023-03-14T02:22:31;11.10;92.10
39519;DHT22;25200;53.394;10.414;2023-03-14T02:27:38;11.10;92.10
39519;DHT22;25200;53.394;10.414;2023-03-14T02:30:11;11.10;92.10
39519;DHT22;25200;53.394;10.414;2023-03-14T02:32:39;11.10;92.10
39519;DHT22;25200;53.394;10.414;2023-03-14T02:35:10;11.10;92.10
39519;DHT22;25200;53.394;10.414;2023-03-14T02:37:43;11.10;92.10
39519;DHT22;25200;53.394;10.414;2023-03-14T02:40:11;11.00;92.10
39519;DHT22;25200;53.394;10.414;2023-03-14T02:42:37;11.00;92.10
39519;DHT22;25200;53.394;10.414;2023-03-14T02:47:35;11.00;92.10
39519;DHT22;25200;53.394;10.414;2023-03-14T02:50:06;11.00;92.10
39519;DHT22;25200;53.394;10.414;2023-03-14T02:52:32;10.90;92.10
39519;DHT22;25200;53.394;10.414;2023-03-14T02:54:58;10.90;92.10
39519;DHT22;25200;53.394;10.414;2023-03-14T02:57:23;10.90;92.20
39519;DHT22;25200;53.394;10.414;2023-03-14T02:59:49;10.90;92.20
39519;DHT22;25200;53.394;10.414;2023-03-14T03:02:15;10.90;92.20
39519;DHT22;25200;53.394;10.414;2023-03-14T03:04:40;10.80;92.20
39519;DHT22;25200;53.394;10.414;2023-03-14T03:07:06;10.80;92.20
39519;DHT22;25200;53.394;10.414;2023-03-14T03:09:32;10.80;92.20
39519;DHT22;25200;53.394;10.414;2023-03-14T03:11:57;10.80;92.20
39519;DHT22;25200;53.394;10.414;2023-03-14T03:14:23;10.80;92.20
39519;DHT22;25200;53.394;10.414;2023-03-14T03:16:49;10.80;92.20
39519;DHT22;25200;53.394;10.414;2023-03-14T03:19:14;10.80;92.20
39519;DHT22;25200;53.394;10.414;2023-03-14T03:21:41;10.70;92.20
39519;DHT22;25200;53.394;10.414;2023-03-14T03:24:07;10.70;92.20
39519;DHT22;25200;53.394;10.414;2023-03-14T03:26:34;10.80;92.20
39519;DHT22;25200;53.394;10.414;2023-03-14T03:29:00;10.80;92.20
39519;DHT22;25200;53.394;10.414;2023-03-14T03:31:26;10.80;92.30
39519;DHT22;25200;53.394;10.414;2023-03-14T03:33:51;10.80;92.30
39519;DHT22;25200;53.394;10.414;2023-03-14T03:36:21;10.80;92.20
39519;DHT22;25200;53.394;10.414;2023-03-14T03:38:47;10.80;92.30
39519;DHT22;25200;53.394;10.414;2023-03-14T03:41:14;10.80;92.30
39519;DHT22;25200;53.394;10.414;2023-03-14T03:43:39;10.80;92.20
39519;DHT22;25200;53.394;10.414;2023-03-14T03:46:05;10.80;92.20
39519;DHT22;25200;53.394;10.414;2023-03-14T03:48:31;10.70;92.20
39519;DHT22;25200;53.394;10.414;2023-03-14T03:50:57;10.80;92.30
39519;DHT22;25200;53.394;10.414;2023-03-14T03:53:23;10.80;92.30
39519;DHT22;25200;53.394;10.414;2023-03-14T03:55:49;10.80;92.30
39519;DHT22;25200;53.394;10.414;2023-03-14T03:58:14;10.80;92.30
39519;DHT22;25200;53.394;10.414;2023-03-14T04:00:40;10.80;92.30
39519;DHT22;25200;53.394;10.414;2023-03-14T04:03:06;10.80;92.30
39519;DHT22;25200;53.394;10.414;2023-03-14T04:05:32;10.80;92.20
39519;DHT22;25200;53.394;10.414;2023-03-14T04:07:57;10.80;92.20
39519;DHT22;25200;53.394;10.414;2023-03-14T04:10:23;10.70;92.20
39519;DHT22;25200;53.394;10.414;2023-03-14T04:12:48;10.70;92.20
39519;DHT22;25200;53.394;10.414;2023-03-14T04:15:14;10.70;92.20
39519;DHT22;25200;53.394;10.414;2023-03-14T04:17:40;10.70;92.20
39519;DHT22;25200;53.394;10.414;2023-03-14T04:20:07;10.70;92.20
39519;DHT22;25200;53.394;10.414;2023-03-14T04:22:36;10.70;92.20
39519;DHT22;25200;53.394;10.414;2023-03-14T04:25:02;10.70;92.20
39519;DHT22;25200;53.394;10.414;2023-03-14T04:27:28;10.70;92.20
39519;DHT22;25200;53.394;10.414;2023-03-14T04:29:54;10.60;92.20
39519;DHT22;25200;53.394;10.414;2023-03-14T04:32:20;10.60;92.20
39519;DHT22;25200;53.394;10.414;2023-03-14T04:34:45;10.60;92.20
39519;DHT22;25200;53.394;10.414;2023-03-14T04:37:11;10.60;92.30
39519;DHT22;25200;53.394;10.414;2023-03-14T04:39:37;10.70;92.30
39519;DHT22;25200;53.394;10.414;2023-03-14T04:42:03;10.70;92.30
39519;DHT22;25200;53.394;10.414;2023-03-14T04:44:28;10.70;92.30
39519;DHT22;25200;53.394;10.414;2023-03-14T04:46:54;10.70;92.30
39519;DHT22;25200;53.394;10.414;2023-03-14T04:49:20;10.70;92.30
39519;DHT22;25200;53.394;10.414;2023-03-14T04:51:46;10.70;92.30
39519;DHT22;25200;53.394;10.414;2023-03-14T04:54:12;10.70;92.30
39519;DHT22;25200;53.394;10.414;2023-03-14T04:56:38;10.70;92.30
39519;DHT22;25200;53.394;10.414;2023-03-14T04:59:04;10.70;92.30
39519;DHT22;25200;53.394;10.414;2023-03-14T05:01:30;10.70;92.30
39519;DHT22;25200;53.394;10.414;2023-03-14T05:03:55;10.70;92.30
39519;DHT22;25200;53.394;10.414;2023-03-14T05:06:21;10.70;92.30
39519;DHT22;25200;53.394;10.414;2023-03-14T05:08:47;10.80;92.30
39519;DHT22;25200;53.394;10.414;2023-03-14T05:11:12;10.80;92.30
39519;DHT22;25200;53.394;10.414;2023-03-14T05:13:39;10.80;92.30
39519;DHT22;25200;53.394;10.414;2023-03-14T05:16:09;10.80;92.20
39519;DHT22;25200;53.394;10.414;2023-03-14T05:18:35;10.80;92.30
39519;DHT22;25200;53.394;10.414;2023-03-14T05:21:01;10.80;92.20
39519;DHT22;25200;53.394;10.414;2023-03-14T05:23:27;10.80;92.30
39519;DHT22;25200;53.394;10.414;2023-03-14T05:25:53;10.80;92.20
39519;DHT22;25200;53.394;10.414;2023-03-14T05:28:19;10.80;92.30
39519;DHT22;25200;53.394;10.414;2023-03-14T05:30:44;10.80;92.20
39519;DHT22;25200;53.394;10.414;2023-03-14T05:33:10;10.80;92.20
39519;DHT22;25200;53.394;10.414;2023-03-14T05:35:36;10.80;92.20
39519;DHT22;25200;53.394;10.414;2023-03-14T05:38:01;10.80;92.20
39519;DHT22;25200;53.394;10.414;2023-03-14T05:40:27;10.80;92.30
39519;DHT22;25200;53.394;10.414;2023-03-14T05:42:52;10.80;92.20
39519;DHT22;25200;53.394;10.414;2023-03-14T05:45:18;10.80;92.20
39519;DHT22;25200;53.394;10.414;2023-03-14T05:47:44;10.80;92.20
39519;DHT22;25200;53.394;10.414;2023-03-14T05:50:10;10.80;92.20
39519;DHT22;25200;53.394;10.414;2023-03-14T05:52:36;10.80;92.20
39519;DHT22;25200;53.394;10.414;2023-03-14T05:55:02;10.80;92.20
39519;DHT22;25200;53.394;10.414;2023-03-14T05:57:28;10.80;92.20
39519;DHT22;25200;53.394;10.414;2023-03-14T05:59:54;10.80;92.20
39519;DHT22;25200;53.394;10.414;2023-03-14T06:02:19;10.90;92.20
39519;DHT22;25200;53.394;10.414;2023-03-14T06:04:45;10.90;92.20
39519;DHT22;25200;53.394;10.414;2023-03-14T06:07:11;10.90;92.20
39519;DHT22;25200;53.394;10.414;2023-03-14T06:09:36;10.90;92.20
39519;DHT22;25200;53.394;10.414;2023-03-14T06:12:03;10.90;92.20
39519;DHT22;25200;53.394;10.414;2023-03-14T06:14:29;10.80;92.20
39519;DHT22;25200;53.394;10.414;2023-03-14T06:16:54;10.90;92.20
39519;DHT22;25200;53.394;10.414;2023-03-14T06:19:20;10.90;92.30
39519;DHT22;25200;53.394;10.414;2023-03-14T06:21:46;10.90;92.20
39519;DHT22;25200;53.394;10.414;2023-03-14T06:24:12;10.90;92.20
39519;DHT22;25200;53.394;10.414;2023-03-14T06:26:37;10.90;92.20
39519;DHT22;25200;53.394;10.414;2023-03-14T06:29:03;10.90;92.20
39519;DHT22;25200;53.394;10.414;2023-03-14T06:31:31;10.90;92.20
39519;DHT22;25200;53.394;10.414;2023-03-14T06:33:56;10.90;92.40
39519;DHT22;25200;53.394;10.414;2023-03-14T06:36:22;10.90;92.10
39519;DHT22;25200;53.394;10.414;2023-03-14T06:38:48;10.90;92.10
39519;DHT22;25200;53.394;10.414;2023-03-14T06:41:13;10.90;92.10
39519;DHT22;25200;53.394;10.414;2023-03-14T06:43:39;10.90;92.10
39519;DHT22;25200;53.394;10.414;2023-03-14T06:46:05;10.90;92.10
39519;DHT22;25200;53.394;10.414;2023-03-14T06:48:31;11.00;92.10
39519;DHT22;25200;53.394;10.414;2023-03-14T06:50:56;11.00;92.10
39519;DHT22;25200;53.394;10.414;2023-03-14T06:53:22;11.00;92.10
39519;DHT22;25200;53.394;10.414;2023-03-14T06:55:48;11.00;92.00
39519;DHT22;25200;53.394;10.414;2023-03-14T06:58:13;11.00;92.00
39519;DHT22;25200;53.394;10.414;2023-03-14T07:00:39;11.00;92.00
39519;DHT22;25200;53.394;10.414;2023-03-14T07:03:05;11.00;92.00
39519;DHT22;25200;53.394;10.414;2023-03-14T07:05:30;11.00;91.90
39519;DHT22;25200;53.394;10.414;2023-03-14T07:07:56;11.00;92.00
39519;DHT22;25200;53.394;10.414;2023-03-14T07:10:22;10.90;92.00
39519;DHT22;25200;53.394;10.414;2023-03-14T07:12:48;11.00;92.00
39519;DHT22;25200;53.394;10.414;2023-03-14T07:15:14;11.00;91.90
39519;DHT22;25200;53.394;10.414;2023-03-14T07:17:40;11.00;91.90
39519;DHT22;25200;53.394;10.414;2023-03-14T07:20:06;11.00;91.90
39519;DHT22;25200;53.394;10.414;2023-03-14T07:22:32;11.00;91.90
39519;DHT22;25200;53.394;10.414;2023-03-14T07:24:58;11.00;91.80
39519;DHT22;25200;53.394;10.414;2023-03-14T07:27:24;11.10;91.80
39519;DHT22;25200;53.394;10.414;2023-03-14T07:29:50;11.10;91.90
39519;DHT22;25200;53.394;10.414;2023-03-14T07:32:15;11.10;91.90
39519;DHT22;25200;53.394;10.414;2023-03-14T07:34:42;11.10;91.90
39519;DHT22;25200;53.394;10.414;2023-03-14T07:37:07;11.10;91.90
39519;DHT22;25200;53.394;10.414;2023-03-14T07:39:33;11.10;91.90
39519;DHT22;25200;53.394;10.414;2023-03-14T07:42:00;11.10;91.90
39519;DHT22;25200;53.394;10.414;2023-03-14T07:44:26;11.10;91.80
39519;DHT22;25200;53.394;10.414;2023-03-14T07:46:51;11.10;91.80
39519;DHT22;25200;53.394;10.414;2023-03-14T07:49:17;11.10;91.80
39519;DHT22;25200;53.394;10.414;2023-03-14T07:51:43;11.10;91.90
39519;DHT22;25200;53.394;10.414;2023-03-14T07:54:10;11.10;91.90
39519;DHT22;25200;53.394;10.414;2023-03-14T07:56:35;11.10;91.90
39519;DHT22;25200;53.394;10.414;2023-03-14T07:59:01;11.20;91.90
39519;DHT22;25200;53.394;10.414;2023-03-14T08:01:27;11.20;91.90
39519;DHT22;25200;53.394;10.414;2023-03-14T08:03:52;11.20;91.90
39519;DHT22;25200;53.394;10.414;2023-03-14T08:06:18;11.20;91.90
39519;DHT22;25200;53.394;10.414;2023-03-14T08:08:44;11.30;91.90
39519;DHT22;25200;53.394;10.414;2023-03-14T08:11:10;11.30;91.90
39519;DHT22;25200;53.394;10.414;2023-03-14T08:13:37;11.40;91.90
39519;DHT22;25200;53.394;10.414;2023-03-14T08:16:03;11.40;91.90
39519;DHT22;25200;53.394;10.414;2023-03-14T08:18:29;11.40;91.80
39519;DHT22;25200;53.394;10.414;2023-03-14T08:20:54;11.40;91.80
39519;DHT22;25200;53.394;10.414;2023-03-14T08:23:20;11.40;91.80
39519;DHT22;25200;53.394;10.414;2023-03-14T08:25:49;11.40;91.90
39519;DHT22;25200;53.394;10.414;2023-03-14T08:28:15;11.40;91.90
39519;DHT22;25200;53.394;10.414;2023-03-14T08:30:40;11.40;92.00
39519;DHT22;25200;53.394;10.414;2023-03-14T08:33:06;11.40;91.90
39519;DHT22;25200;53.394;10.414;2023-03-14T08:35:32;11.40;92.00
39519;DHT22;25200;53.394;10.414;2023-03-14T08:37:57;11.50;92.00
39519;DHT22;25200;53.394;10.414;2023-03-14T08:40:23;11.50;92.00
39519;DHT22;25200;53.394;10.414;2023-03-14T08:42:49;11.60;92.00
39519;DHT22;25200;53.394;10.414;2023-03-14T08:45:15;11.70;91.90
39519;DHT22;25200;53.394;10.414;2023-03-14T08:47:44;11.70;91.90
39519;DHT22;25200;53.394;10.414;2023-03-14T08:50:11;11.80;91.90
39519;DHT22;25200;53.394;10.414;2023-03-14T08:52:36;11.80;91.80
39519;DHT22;25200;53.394;10.414;2023-03-14T08:55:08;11.90;91.90
39519;DHT22;25200;53.394;10.414;2023-03-14T08:57:34;12.00;91.90
39519;DHT22;25200;53.394;10.414;2023-03-14T08:59:59;12.10;91.90
39519;DHT22;25200;53.394;10.414;2023-03-14T09:02:25;12.10;91.70
39519;DHT22;25200;53.394;10.414;2023-03-14T09:04:51;12.20;91.60
39519;DHT22;25200;53.394;10.414;2023-03-14T09:07:18;12.20;91.70
39519;DHT22;25200;53.394;10.414;2023-03-14T09:09:44;12.30;91.60
39519;DHT22;25200;53.394;10.414;2023-03-14T09:12:10;12.30;91.60
39519;DHT22;25200;53.394;10.414;2023-03-14T09:14:35;12.30;91.50
39519;DHT22;25200;53.394;10.414;2023-03-14T09:17:02;12.40;91.50
39519;DHT22;25200;53.394;10.414;2023-03-14T09:19:28;12.50;91.50
39519;DHT22;25200;53.394;10.414;2023-03-14T09:21:54;12.60;91.30
39519;DHT22;25200;53.394;10.414;2023-03-14T09:24:20;12.70;91.30
39519;DHT22;25200;53.394;10.414;2023-03-14T09:26:46;12.70;91.30
39519;DHT22;25200;53.394;10.414;2023-03-14T09:29:12;12.70;91.10
39519;DHT22;25200;53.394;10.414;2023-03-14T09:31:37;12.80;91.30
39519;DHT22;25200;53.394;10.414;2023-03-14T09:34:03;12.80;91.10
39519;DHT22;25200;53.394;10.414;2023-03-14T09:36:29;12.80;91.00
39519;DHT22;25200;53.394;10.414;2023-03-14T09:38:55;12.80;90.70
39519;DHT22;25200;53.394;10.414;2023-03-14T09:41:25;12.80;90.60
39519;DHT22;25200;53.394;10.414;2023-03-14T09:46:31;12.90;90.70
39519;DHT22;25200;53.394;10.414;2023-03-14T09:49:00;13.00;90.70
39519;DHT22;25200;53.394;10.414;2023-03-14T09:51:26;13.00;90.70
39519;DHT22;25200;53.394;10.414;2023-03-14T09:53:52;13.10;90.80
39519;DHT22;25200;53.394;10.414;2023-03-14T09:56:23;13.10;90.80
39519;DHT22;25200;53.394;10.414;2023-03-14T09:58:55;13.20;90.80
39519;DHT22;25200;53.394;10.414;2023-03-14T10:01:27;13.20;90.60
39519;DHT22;25200;53.394;10.414;2023-03-14T10:04:01;13.20;90.50
39519;DHT22;25200;53.394;10.414;2023-03-14T10:06:30;13.20;90.40
39519;DHT22;25200;53.394;10.414;2023-03-14T10:08:56;13.20;90.80
39519;DHT22;25200;53.394;10.414;2023-03-14T10:11:23;13.20;90.60
39519;DHT22;25200;53.394;10.414;2023-03-14T10:14:03;13.30;90.60
39519;DHT22;25200;53.394;10.414;2023-03-14T10:16:35;13.30;90.50
39519;DHT22;25200;53.394;10.414;2023-03-14T10:19:04;13.20;90.50
39519;DHT22;25200;53.394;10.414;2023-03-14T10:21:32;13.20;90.30
39519;DHT22;25200;53.394;10.414;2023-03-14T10:26:58;13.10;90.30
39519;DHT22;25200;53.394;10.414;2023-03-14T10:29:27;13.00;90.30
39519;DHT22;25200;53.394;10.414;2023-03-14T10:32:05;12.90;90.30
39519;DHT22;25200;53.394;10.414;2023-03-14T10:34:38;12.70;90.60
39519;DHT22;25200;53.394;10.414;2023-03-14T10:37:24;12.60;90.70
39519;DHT22;25200;53.394;10.414;2023-03-14T10:40:02;12.50;90.90
39519;DHT22;25200;53.394;10.414;2023-03-14T10:42:39;12.40;90.90
39519;DHT22;25200;53.394;10.414;2023-03-14T10:45:39;12.30;91.00
39519;DHT22;25200;53.394;10.414;2023-03-14T10:48:18;12.20;91.00
39519;DHT22;25200;53.394;10.414;2023-03-14T10:51:11;12.10;91.10
39519;DHT22;25200;53.394;10.414;2023-03-14T10:56:20;12.00;91.20
39519;DHT22;25200;53.394;10.414;2023-03-14T10:58:48;12.00;91.30
39519;DHT22;25200;53.394;10.414;2023-03-14T11:03:45;11.90;91.30
39519;DHT22;25200;53.394;10.414;2023-03-14T11:07:03;11.90;91.30
39519;DHT22;25200;53.394;10.414;2023-03-14T11:09:27;11.80;91.30
39519;DHT22;25200;53.394;10.414;2023-03-14T11:12:02;11.80;91.30
39519;DHT22;25200;53.394;10.414;2023-03-14T11:14:31;11.80;91.30
39519;DHT22;25200;53.394;10.414;2023-03-14T11:17:02;11.70;91.30
39519;DHT22;25200;53.394;10.414;2023-03-14T11:19:40;11.70;91.30
39519;DHT22;25200;53.394;10.414;2023-03-14T11:22:30;11.60;91.20
39519;DHT22;25200;53.394;10.414;2023-03-14T11:25:03;11.50;91.20
39519;DHT22;25200;53.394;10.414;2023-03-14T11:31:33;11.30;91.00
39519;DHT22;25200;53.394;10.414;2023-03-14T11:39:51;11.00;91.00
39519;DHT22;25200;53.394;10.414;2023-03-14T11:42:20;10.80;90.70
39519;DHT22;25200;53.394;10.414;2023-03-14T11:44:48;10.80;91.00
39519;DHT22;25200;53.394;10.414;2023-03-14T11:47:22;10.70;90.90
39519;DHT22;25200;53.394;10.414;2023-03-14T11:50:18;10.60;90.80
39519;DHT22;25200;53.394;10.414;2023-03-14T11:52:51;10.50;90.70
39519;DHT22;25200;53.394;10.414;2023-03-14T11:55:26;10.40;90.90
39519;DHT22;25200;53.394;10.414;2023-03-14T11:58:29;10.40;90.90
39519;DHT22;25200;53.394;10.414;2023-03-14T12:00:57;10.30;90.80
39519;DHT22;25200;53.394;10.414;2023-03-14T12:03:44;10.20;90.80
39519;DHT22;25200;53.394;10.414;2023-03-14T12:09:08;10.10;90.80
39519;DHT22;25200;53.394;10.414;2023-03-14T12:11:52;10.00;90.80
39519;DHT22;25200;53.394;10.414;2023-03-14T12:14:27;10.00;90.80
39519;DHT22;25200;53.394;10.414;2023-03-14T12:16:56;9.90;90.60
39519;DHT22;25200;53.394;10.414;2023-03-14T12:21:51;9.80;90.60
39519;DHT22;25200;53.394;10.414;2023-03-14T12:24:22;9.70;90.50
39519;DHT22;25200;53.394;10.414;2023-03-14T12:26:57;9.70;90.60
39519;DHT22;25200;53.394;10.414;2023-03-14T12:29:24;9.70;90.70
39519;DHT22;25200;53.394;10.414;2023-03-14T12:32:08;9.60;90.70
39519;DHT22;25200;53.394;10.414;2023-03-14T12:34:41;9.60;90.70
39519;DHT22;25200;53.394;10.414;2023-03-14T12:37:37;9.50;90.50
39519;DHT22;25200;53.394;10.414;2023-03-14T12:40:30;9.50;90.40
39519;DHT22;25200;53.394;10.414;2023-03-14T12:43:04;9.50;90.60
39519;DHT22;25200;53.394;10.414;2023-03-14T12:45:32;9.40;90.60
39519;DHT22;25200;53.394;10.414;2023-03-14T12:48:22;9.30;90.30
39519;DHT22;25200;53.394;10.414;2023-03-14T13:01:34;9.20;90.50
39519;DHT22;25200;53.394;10.414;2023-03-14T13:04:19;9.20;90.50
39519;DHT22;25200;53.394;10.414;2023-03-14T13:06:51;9.20;90.60
39519;DHT22;25200;53.394;10.414;2023-03-14T13:12:10;9.20;90.70
39519;DHT22;25200;53.394;10.414;2023-03-14T13:14:41;9.20;90.60
39519;DHT22;25200;53.394;10.414;2023-03-14T13:17:12;9.20;90.70
39519;DHT22;25200;53.394;10.414;2023-03-14T13:19:38;9.20;90.60
39519;DHT22;25200;53.394;10.414;2023-03-14T13:22:20;9.20;90.60
39519;DHT22;25200;53.394;10.414;2023-03-14T13:24:46;9.20;90.60
39519;DHT22;25200;53.394;10.414;2023-03-14T13:27:20;9.10;90.50
39519;DHT22;25200;53.394;10.414;2023-03-14T13:29:49;9.10;90.50
39519;DHT22;25200;53.394;10.414;2023-03-14T13:32:26;9.10;90.50
39519;DHT22;25200;53.394;10.414;2023-03-14T13:34:58;9.20;90.50
39519;DHT22;25200;53.394;10.414;2023-03-14T13:37:26;9.20;90.50
39519;DHT22;25200;53.394;10.414;2023-03-14T13:39:57;9.20;90.50
39519;DHT22;25200;53.394;10.414;2023-03-14T13:42:28;9.20;90.50
39519;DHT22;25200;53.394;10.414;2023-03-14T13:44:55;9.20;90.40
39519;DHT22;25200;53.394;10.414;2023-03-14T13:47:23;9.10;90.40
39519;DHT22;25200;53.394;10.414;2023-03-14T13:49:50;9.10;90.40
39519;DHT22;25200;53.394;10.414;2023-03-14T13:52:37;9.10;90.40
39519;DHT22;25200;53.394;10.414;2023-03-14T13:55:05;9.00;90.30
39519;DHT22;25200;53.394;10.414;2023-03-14T13:57:46;9.00;90.40
39519;DHT22;25200;53.394;10.414;2023-03-14T14:00:39;8.90;90.40
39519;DHT22;25200;53.394;10.414;2023-03-14T14:03:10;8.90;90.40
39519;DHT22;25200;53.394;10.414;2023-03-14T14:05:36;8.90;90.30
39519;DHT22;25200;53.394;10.414;2023-03-14T14:08:05;8.90;90.40
39519;DHT22;25200;53.394;10.414;2023-03-14T14:10:31;8.90;90.40
39519;DHT22;25200;53.394;10.414;2023-03-14T14:13:02;8.90;90.40
39519;DHT22;25200;53.394;10.414;2023-03-14T14:15:33;8.90;90.30
39519;DHT22;25200;53.394;10.414;2023-03-14T14:18:04;8.90;90.30
39519;DHT22;25200;53.394;10.414;2023-03-14T14:20:49;8.90;90.10
39519;DHT22;25200;53.394;10.414;2023-03-14T14:23:27;8.80;90.10
39519;DHT22;25200;53.394;10.414;2023-03-14T14:25:58;8.80;90.00
39519;DHT22;25200;53.394;10.414;2023-03-14T14:28:32;8.80;89.90
39519;DHT22;25200;53.394;10.414;2023-03-14T14:33:43;8.80;89.40
39519;DHT22;25200;53.394;10.414;2023-03-14T14:38:53;8.80;89.80
39519;DHT22;25200;53.394;10.414;2023-03-14T14:41:20;8.70;89.00
39519;DHT22;25200;53.394;10.414;2023-03-14T14:43:46;8.70;88.50
39519;DHT22;25200;53.394;10.414;2023-03-14T14:46:18;8.70;89.10
39519;DHT22;25200;53.394;10.414;2023-03-14T14:48:44;8.60;89.00
39519;DHT22;25200;53.394;10.414;2023-03-14T14:51:26;8.60;89.20
39519;DHT22;25200;53.394;10.414;2023-03-14T14:54:14;8.60;88.80
39519;DHT22;25200;53.394;10.414;2023-03-14T14:56:40;8.60;88.90
39519;DHT22;25200;53.394;10.414;2023-03-14T14:59:25;8.60;89.00
39519;DHT22;25200;53.394;10.414;2023-03-14T15:01:58;8.50;88.90
39519;DHT22;25200;53.394;10.414;2023-03-14T15:04:25;8.50;89.00
39519;DHT22;25200;53.394;10.414;2023-03-14T15:06:52;8.50;89.00
39519;DHT22;25200;53.394;10.414;2023-03-14T15:09:19;8.50;88.40
39519;DHT22;25200;53.394;10.414;2023-03-14T15:11:46;8.50;88.60
39519;DHT22;25200;53.394;10.414;2023-03-14T15:14:12;8.50;88.30
39519;DHT22;25200;53.394;10.414;2023-03-14T15:16:38;8.40;88.20
39519;DHT22;25200;53.394;10.414;2023-03-14T15:19:23;8.50;88.50
39519;DHT22;25200;53.394;10.414;2023-03-14T15:21:50;8.40;88.50
39519;DHT22;25200;53.394;10.414;2023-03-14T15:24:16;8.40;88.50
39519;DHT22;25200;53.394;10.414;2023-03-14T15:26:41;8.40;88.50
39519;DHT22;25200;53.394;10.414;2023-03-14T15:29:10;8.40;88.40
39519;DHT22;25200;53.394;10.414;2023-03-14T15:31:37;8.30;88.10
39519;DHT22;25200;53.394;10.414;2023-03-14T15:34:03;8.20;88.30
39519;DHT22;25200;53.394;10.414;2023-03-14T15:36:31;8.30;88.10
39519;DHT22;25200;53.394;10.414;2023-03-14T15:38:58;8.20;87.90
39519;DHT22;25200;53.394;10.414;2023-03-14T15:41:25;8.20;88.20
39519;DHT22;25200;53.394;10.414;2023-03-14T15:43:51;8.20;88.20
39519;DHT22;25200;53.394;10.414;2023-03-14T15:46:17;8.10;88.10
39519;DHT22;25200;53.394;10.414;2023-03-14T15:48:46;8.10;87.80
39519;DHT22;25200;53.394;10.414;2023-03-14T15:51:11;8.10;88.20
39519;DHT22;25200;53.394;10.414;2023-03-14T15:53:37;8.00;88.60
39519;DHT22;25200;53.394;10.414;2023-03-14T15:56:05;8.00;88.00
39519;DHT22;25200;53.394;10.414;2023-03-14T15:58:31;8.00;87.80
39519;DHT22;25200;53.394;10.414;2023-03-14T16:01:02;8.00;87.70
39519;DHT22;25200;53.394;10.414;2023-03-14T16:03:28;7.90;87.80
39519;DHT22;25200;53.394;10.414;2023-03-14T16:05:55;7.90;88.10
39519;DHT22;25200;53.394;10.414;2023-03-14T16:08:22;7.90;88.00
39519;DHT22;25200;53.394;10.414;2023-03-14T16:10:48;7.90;87.80
39519;DHT22;25200;53.394;10.414;2023-03-14T16:13:14;7.80;88.10
39519;DHT22;25200;53.394;10.414;2023-03-14T16:15:40;7.80;88.00
39519;DHT22;25200;53.394;10.414;2023-03-14T16:18:06;7.80;87.60
39519;DHT22;25200;53.394;10.414;2023-03-14T16:20:31;7.80;87.70
39519;DHT22;25200;53.394;10.414;2023-03-14T16:22:57;7.80;87.70
39519;DHT22;25200;53.394;10.414;2023-03-14T16:25:23;7.70;87.60